메인 페이지
METAR-TAF:

METAR-TAF

공항 :

닝보 리서 국제공항

닝보 시, 중국

위도: 29-49-36N, 경도: 121-27-43E, 고도: 4m

현재 날씨관측

예보는 23분 전, 17:00시(UTC)에 발표되었습니다.
4kt
온도 23°C
습도 89%
기압 1011 hPa
시정: 7000m

METAR: ZSNB 311700Z 18002MPS 7000 NSC 23/21 Q1011 NOSIG

시각: 01:23 (17:23 UTC)

예보

예보는 8 시간 14분 전, 09:09시(UTC)에 발표되었습니다.
예보 대상 시간: 31일 12시부터 01일 12시까지 (UTC)
남남동8kt
시정: 4000m
고도 3000ft 상공 구름 보통
박무

TAF: ZSNB 310909Z 3112/0112 16004MPS 4000 BR SCT030 TX28/0106Z TN21/3121Z

4,000개 이상의 공항 관측 자료 및 예보 (METAR 및 TAF 보고).

지도상에서 검색 가능한 기상관측소가 노란 점과 빨간 점으로 표시되어 있습니다.

기상관측소 명을 보려면 표시 위로 마우스를 이동하세요.

날씨 관측과 예보를 보려면 클릭하세요.

지도 변경 : 확대하려면 엑스 표시가 있는 녹색 버튼, 축소하려면 빼기 표시가 있는 녹색 버튼, 다음 페이지의 지도를 보려면 녹색 화살표를 클릭하세요.


METAR-TAF: